sensor_id;sensor_type;location;lat;lon;timestamp;P1;durP1;ratioP1;P2;durP2;ratioP2
14748;SDS011;7466;53.574;9.976;2022-09-09T00:01:36;55.57;;;35.57;;
14748;SDS011;7466;53.574;9.976;2022-09-09T00:04:10;74.70;;;39.43;;
14748;SDS011;7466;53.574;9.976;2022-09-09T00:06:45;75.67;;;40.53;;
14748;SDS011;7466;53.574;9.976;2022-09-09T00:09:17;59.10;;;36.67;;
14748;SDS011;7466;53.574;9.976;2022-09-09T00:11:46;70.23;;;38.53;;
14748;SDS011;7466;53.574;9.976;2022-09-09T00:14:18;83.07;;;40.27;;
14748;SDS011;7466;53.574;9.976;2022-09-09T00:16:50;76.13;;;41.70;;
14748;SDS011;7466;53.574;9.976;2022-09-09T00:19:22;76.47;;;40.73;;
14748;SDS011;7466;53.574;9.976;2022-09-09T00:21:55;74.30;;;41.63;;
14748;SDS011;7466;53.574;9.976;2022-09-09T00:24:38;66.13;;;39.60;;
14748;SDS011;7466;53.574;9.976;2022-09-09T00:27:08;69.13;;;39.23;;
14748;SDS011;7466;53.574;9.976;2022-09-09T00:29:41;61.13;;;37.20;;
14748;SDS011;7466;53.574;9.976;2022-09-09T00:32:11;64.00;;;40.30;;
14748;SDS011;7466;53.574;9.976;2022-09-09T00:34:44;75.93;;;40.90;;
14748;SDS011;7466;53.574;9.976;2022-09-09T00:37:15;86.23;;;46.30;;
14748;SDS011;7466;53.574;9.976;2022-09-09T00:39:42;91.00;;;46.20;;
14748;SDS011;7466;53.574;9.976;2022-09-09T00:42:13;111.60;;;49.73;;
14748;SDS011;7466;53.574;9.976;2022-09-09T00:44:48;122.43;;;53.50;;
14748;SDS011;7466;53.574;9.976;2022-09-09T00:47:39;147.37;;;54.93;;
14748;SDS011;7466;53.574;9.976;2022-09-09T00:50:15;126.63;;;50.93;;
14748;SDS011;7466;53.574;9.976;2022-09-09T00:53:02;136.90;;;54.43;;
14748;SDS011;7466;53.574;9.976;2022-09-09T00:55:39;156.20;;;55.70;;
14748;SDS011;7466;53.574;9.976;2022-09-09T00:58:11;135.40;;;54.50;;
14748;SDS011;7466;53.574;9.976;2022-09-09T01:00:40;132.50;;;54.87;;
14748;SDS011;7466;53.574;9.976;2022-09-09T01:03:14;129.97;;;52.33;;
14748;SDS011;7466;53.574;9.976;2022-09-09T01:05:50;122.67;;;52.13;;
14748;SDS011;7466;53.574;9.976;2022-09-09T01:08:42;114.47;;;50.33;;
14748;SDS011;7466;53.574;9.976;2022-09-09T01:11:26;120.30;;;49.17;;
14748;SDS011;7466;53.574;9.976;2022-09-09T01:14:00;110.47;;;48.70;;
14748;SDS011;7466;53.574;9.976;2022-09-09T01:16:36;111.47;;;49.77;;
14748;SDS011;7466;53.574;9.976;2022-09-09T01:19:03;104.50;;;47.23;;
14748;SDS011;7466;53.574;9.976;2022-09-09T01:21:36;101.60;;;46.07;;
14748;SDS011;7466;53.574;9.976;2022-09-09T01:24:15;103.63;;;44.83;;
14748;SDS011;7466;53.574;9.976;2022-09-09T01:26:50;118.97;;;45.80;;
14748;SDS011;7466;53.574;9.976;2022-09-09T01:29:20;99.77;;;44.47;;
14748;SDS011;7466;53.574;9.976;2022-09-09T01:31:55;98.23;;;44.27;;
14748;SDS011;7466;53.574;9.976;2022-09-09T01:34:24;99.83;;;45.07;;
14748;SDS011;7466;53.574;9.976;2022-09-09T01:36:53;102.93;;;45.23;;
14748;SDS011;7466;53.574;9.976;2022-09-09T01:39:24;109.13;;;47.20;;
14748;SDS011;7466;53.574;9.976;2022-09-09T01:41:53;105.17;;;46.20;;
14748;SDS011;7466;53.574;9.976;2022-09-09T01:44:21;108.70;;;44.80;;
14748;SDS011;7466;53.574;9.976;2022-09-09T01:46:48;104.43;;;43.87;;
14748;SDS011;7466;53.574;9.976;2022-09-09T01:49:15;101.37;;;43.53;;
14748;SDS011;7466;53.574;9.976;2022-09-09T01:51:43;91.87;;;42.90;;
14748;SDS011;7466;53.574;9.976;2022-09-09T01:54:12;92.83;;;41.40;;
14748;SDS011;7466;53.574;9.976;2022-09-09T01:56:40;95.90;;;42.30;;
14748;SDS011;7466;53.574;9.976;2022-09-09T01:59:21;86.23;;;40.90;;
14748;SDS011;7466;53.574;9.976;2022-09-09T02:02:01;86.13;;;40.63;;
14748;SDS011;7466;53.574;9.976;2022-09-09T02:04:36;84.63;;;39.80;;
14748;SDS011;7466;53.574;9.976;2022-09-09T02:07:06;84.67;;;41.43;;
14748;SDS011;7466;53.574;9.976;2022-09-09T02:09:46;85.80;;;40.20;;
14748;SDS011;7466;53.574;9.976;2022-09-09T02:12:18;86.67;;;39.30;;
14748;SDS011;7466;53.574;9.976;2022-09-09T02:14:52;89.90;;;39.57;;
14748;SDS011;7466;53.574;9.976;2022-09-09T02:17:24;94.03;;;41.10;;
14748;SDS011;7466;53.574;9.976;2022-09-09T02:19:54;89.93;;;40.60;;
14748;SDS011;7466;53.574;9.976;2022-09-09T02:22:25;89.40;;;40.27;;
14748;SDS011;7466;53.574;9.976;2022-09-09T02:24:56;86.50;;;40.97;;
14748;SDS011;7466;53.574;9.976;2022-09-09T02:27:26;86.73;;;38.83;;
14748;SDS011;7466;53.574;9.976;2022-09-09T02:29:55;86.73;;;38.93;;
14748;SDS011;7466;53.574;9.976;2022-09-09T02:32:25;80.87;;;39.13;;
14748;SDS011;7466;53.574;9.976;2022-09-09T02:34:56;85.47;;;38.03;;
14748;SDS011;7466;53.574;9.976;2022-09-09T02:37:27;82.87;;;37.77;;
14748;SDS011;7466;53.574;9.976;2022-09-09T02:39:58;85.00;;;40.03;;
14748;SDS011;7466;53.574;9.976;2022-09-09T02:42:25;82.63;;;38.30;;
14748;SDS011;7466;53.574;9.976;2022-09-09T02:44:52;80.67;;;39.43;;
14748;SDS011;7466;53.574;9.976;2022-09-09T02:47:24;89.70;;;40.30;;
14748;SDS011;7466;53.574;9.976;2022-09-09T02:49:58;78.83;;;38.30;;
14748;SDS011;7466;53.574;9.976;2022-09-09T02:52:32;84.43;;;39.33;;
14748;SDS011;7466;53.574;9.976;2022-09-09T02:55:06;85.00;;;39.70;;
14748;SDS011;7466;53.574;9.976;2022-09-09T02:57:40;89.77;;;40.20;;
14748;SDS011;7466;53.574;9.976;2022-09-09T03:00:11;82.40;;;39.43;;
14748;SDS011;7466;53.574;9.976;2022-09-09T03:02:39;86.40;;;40.53;;
14748;SDS011;7466;53.574;9.976;2022-09-09T03:05:07;84.03;;;40.07;;
14748;SDS011;7466;53.574;9.976;2022-09-09T03:07:34;88.23;;;41.13;;
14748;SDS011;7466;53.574;9.976;2022-09-09T03:10:01;80.17;;;38.07;;
14748;SDS011;7466;53.574;9.976;2022-09-09T03:12:27;85.83;;;41.00;;
14748;SDS011;7466;53.574;9.976;2022-09-09T03:14:54;80.97;;;40.93;;
14748;SDS011;7466;53.574;9.976;2022-09-09T03:17:21;81.87;;;39.93;;
14748;SDS011;7466;53.574;9.976;2022-09-09T03:19:49;78.47;;;39.63;;
14748;SDS011;7466;53.574;9.976;2022-09-09T03:22:19;76.97;;;38.40;;
14748;SDS011;7466;53.574;9.976;2022-09-09T03:24:46;74.37;;;39.03;;
14748;SDS011;7466;53.574;9.976;2022-09-09T03:27:13;75.27;;;38.40;;
14748;SDS011;7466;53.574;9.976;2022-09-09T03:29:40;73.27;;;37.40;;
14748;SDS011;7466;53.574;9.976;2022-09-09T03:32:07;74.97;;;38.17;;
14748;SDS011;7466;53.574;9.976;2022-09-09T03:34:35;82.37;;;37.70;;
14748;SDS011;7466;53.574;9.976;2022-09-09T03:37:06;72.10;;;36.80;;
14748;SDS011;7466;53.574;9.976;2022-09-09T03:39:33;72.70;;;37.13;;
14748;SDS011;7466;53.574;9.976;2022-09-09T03:42:00;72.40;;;36.80;;
14748;SDS011;7466;53.574;9.976;2022-09-09T03:44:28;70.47;;;36.73;;
14748;SDS011;7466;53.574;9.976;2022-09-09T03:46:55;67.57;;;36.27;;
14748;SDS011;7466;53.574;9.976;2022-09-09T03:49:25;71.57;;;36.17;;
14748;SDS011;7466;53.574;9.976;2022-09-09T03:51:53;77.70;;;36.80;;
14748;SDS011;7466;53.574;9.976;2022-09-09T03:54:22;73.63;;;35.47;;
14748;SDS011;7466;53.574;9.976;2022-09-09T03:56:50;71.87;;;37.13;;
14748;SDS011;7466;53.574;9.976;2022-09-09T03:59:17;74.33;;;35.23;;
14748;SDS011;7466;53.574;9.976;2022-09-09T04:01:43;71.53;;;35.57;;
14748;SDS011;7466;53.574;9.976;2022-09-09T04:04:12;63.90;;;34.07;;
14748;SDS011;7466;53.574;9.976;2022-09-09T04:06:39;60.07;;;33.20;;
14748;SDS011;7466;53.574;9.976;2022-09-09T04:09:05;73.33;;;35.63;;
14748;SDS011;7466;53.574;9.976;2022-09-09T04:11:34;58.47;;;33.07;;
14748;SDS011;7466;53.574;9.976;2022-09-09T04:14:02;59.70;;;34.07;;
14748;SDS011;7466;53.574;9.976;2022-09-09T04:16:31;62.00;;;35.07;;
14748;SDS011;7466;53.574;9.976;2022-09-09T04:18:59;60.47;;;33.93;;
14748;SDS011;7466;53.574;9.976;2022-09-09T04:21:26;63.80;;;33.77;;
14748;SDS011;7466;53.574;9.976;2022-09-09T04:23:53;60.53;;;34.83;;
14748;SDS011;7466;53.574;9.976;2022-09-09T04:26:19;62.23;;;33.97;;
14748;SDS011;7466;53.574;9.976;2022-09-09T04:28:48;62.53;;;34.37;;
14748;SDS011;7466;53.574;9.976;2022-09-09T04:31:15;62.57;;;33.13;;
14748;SDS011;7466;53.574;9.976;2022-09-09T04:33:43;58.73;;;32.83;;
14748;SDS011;7466;53.574;9.976;2022-09-09T04:36:11;63.40;;;33.07;;
14748;SDS011;7466;53.574;9.976;2022-09-09T04:38:38;61.53;;;34.13;;
14748;SDS011;7466;53.574;9.976;2022-09-09T04:41:05;64.23;;;33.83;;
14748;SDS011;7466;53.574;9.976;2022-09-09T04:43:32;58.07;;;32.43;;
14748;SDS011;7466;53.574;9.976;2022-09-09T04:46:01;54.70;;;31.97;;
14748;SDS011;7466;53.574;9.976;2022-09-09T04:48:28;55.97;;;31.83;;
14748;SDS011;7466;53.574;9.976;2022-09-09T04:50:56;63.87;;;32.53;;
14748;SDS011;7466;53.574;9.976;2022-09-09T04:53:24;51.40;;;30.20;;
14748;SDS011;7466;53.574;9.976;2022-09-09T04:55:52;46.03;;;30.10;;
14748;SDS011;7466;53.574;9.976;2022-09-09T04:58:26;44.93;;;28.33;;
14748;SDS011;7466;53.574;9.976;2022-09-09T05:00:53;41.73;;;27.60;;
14748;SDS011;7466;53.574;9.976;2022-09-09T05:03:22;41.87;;;27.23;;
14748;SDS011;7466;53.574;9.976;2022-09-09T05:05:49;42.90;;;26.90;;
14748;SDS011;7466;53.574;9.976;2022-09-09T05:08:15;38.33;;;25.60;;
14748;SDS011;7466;53.574;9.976;2022-09-09T05:10:43;32.17;;;23.60;;
14748;SDS011;7466;53.574;9.976;2022-09-09T05:13:09;38.13;;;24.87;;
14748;SDS011;7466;53.574;9.976;2022-09-09T05:15:37;35.50;;;24.73;;
14748;SDS011;7466;53.574;9.976;2022-09-09T05:18:04;40.50;;;24.83;;
14748;SDS011;7466;53.574;9.976;2022-09-09T05:20:32;30.23;;;22.63;;
14748;SDS011;7466;53.574;9.976;2022-09-09T05:22:59;34.50;;;23.77;;
14748;SDS011;7466;53.574;9.976;2022-09-09T05:25:26;35.53;;;23.40;;
14748;SDS011;7466;53.574;9.976;2022-09-09T05:27:52;32.77;;;23.40;;
14748;SDS011;7466;53.574;9.976;2022-09-09T05:30:19;28.40;;;21.77;;
14748;SDS011;7466;53.574;9.976;2022-09-09T05:32:47;31.20;;;21.57;;
14748;SDS011;7466;53.574;9.976;2022-09-09T05:35:15;31.80;;;22.87;;
14748;SDS011;7466;53.574;9.976;2022-09-09T05:37:45;33.87;;;22.07;;
14748;SDS011;7466;53.574;9.976;2022-09-09T05:40:12;37.33;;;22.63;;
14748;SDS011;7466;53.574;9.976;2022-09-09T05:42:39;30.80;;;20.87;;
14748;SDS011;7466;53.574;9.976;2022-09-09T05:45:07;25.07;;;20.20;;
14748;SDS011;7466;53.574;9.976;2022-09-09T05:47:35;25.33;;;19.70;;
14748;SDS011;7466;53.574;9.976;2022-09-09T05:50:03;27.80;;;20.47;;
14748;SDS011;7466;53.574;9.976;2022-09-09T05:52:30;26.63;;;18.27;;
14748;SDS011;7466;53.574;9.976;2022-09-09T05:54:59;26.30;;;17.57;;
14748;SDS011;7466;53.574;9.976;2022-09-09T05:57:25;27.63;;;18.60;;
14748;SDS011;7466;53.574;9.976;2022-09-09T05:59:52;18.93;;;16.93;;
14748;SDS011;7466;53.574;9.976;2022-09-09T06:02:19;25.00;;;17.73;;
14748;SDS011;7466;53.574;9.976;2022-09-09T06:04:46;21.07;;;17.00;;
14748;SDS011;7466;53.574;9.976;2022-09-09T06:07:13;17.43;;;15.73;;
14748;SDS011;7466;53.574;9.976;2022-09-09T06:09:40;14.83;;;13.37;;
14748;SDS011;7466;53.574;9.976;2022-09-09T06:12:08;15.57;;;14.03;;
14748;SDS011;7466;53.574;9.976;2022-09-09T06:14:35;15.40;;;13.70;;
14748;SDS011;7466;53.574;9.976;2022-09-09T06:17:02;15.50;;;13.90;;
14748;SDS011;7466;53.574;9.976;2022-09-09T06:19:30;15.57;;;13.93;;
14748;SDS011;7466;53.574;9.976;2022-09-09T06:21:57;18.00;;;14.17;;
14748;SDS011;7466;53.574;9.976;2022-09-09T06:24:24;16.53;;;14.83;;
14748;SDS011;7466;53.574;9.976;2022-09-09T06:26:51;14.97;;;13.47;;
14748;SDS011;7466;53.574;9.976;2022-09-09T06:29:20;15.27;;;13.43;;
14748;SDS011;7466;53.574;9.976;2022-09-09T06:31:47;14.83;;;13.33;;
14748;SDS011;7466;53.574;9.976;2022-09-09T06:34:13;17.80;;;14.40;;
14748;SDS011;7466;53.574;9.976;2022-09-09T06:36:40;15.33;;;13.87;;
14748;SDS011;7466;53.574;9.976;2022-09-09T06:39:07;15.87;;;13.50;;
14748;SDS011;7466;53.574;9.976;2022-09-09T06:41:36;18.07;;;13.63;;
14748;SDS011;7466;53.574;9.976;2022-09-09T06:44:03;15.00;;;13.47;;
14748;SDS011;7466;53.574;9.976;2022-09-09T06:46:31;15.27;;;12.70;;
14748;SDS011;7466;53.574;9.976;2022-09-09T06:48:58;17.90;;;12.63;;
14748;SDS011;7466;53.574;9.976;2022-09-09T06:51:26;13.53;;;12.00;;
14748;SDS011;7466;53.574;9.976;2022-09-09T06:53:55;13.80;;;12.37;;
14748;SDS011;7466;53.574;9.976;2022-09-09T06:56:23;13.33;;;11.90;;
14748;SDS011;7466;53.574;9.976;2022-09-09T06:58:53;13.50;;;12.10;;
14748;SDS011;7466;53.574;9.976;2022-09-09T07:01:21;13.07;;;11.83;;
14748;SDS011;7466;53.574;9.976;2022-09-09T07:03:52;14.73;;;10.73;;
14748;SDS011;7466;53.574;9.976;2022-09-09T07:06:20;11.43;;;10.47;;
14748;SDS011;7466;53.574;9.976;2022-09-09T07:08:49;12.03;;;11.03;;
14748;SDS011;7466;53.574;9.976;2022-09-09T07:11:17;10.53;;;9.53;;
14748;SDS011;7466;53.574;9.976;2022-09-09T07:13:45;9.37;;;8.47;;
14748;SDS011;7466;53.574;9.976;2022-09-09T07:16:13;9.10;;;8.20;;
14748;SDS011;7466;53.574;9.976;2022-09-09T07:18:42;9.47;;;8.47;;
14748;SDS011;7466;53.574;9.976;2022-09-09T07:21:10;9.50;;;7.97;;
14748;SDS011;7466;53.574;9.976;2022-09-09T07:23:38;9.80;;;8.70;;
14748;SDS011;7466;53.574;9.976;2022-09-09T07:26:09;8.17;;;7.27;;
14748;SDS011;7466;53.574;9.976;2022-09-09T07:28:37;8.37;;;7.07;;
14748;SDS011;7466;53.574;9.976;2022-09-09T07:31:05;9.70;;;6.97;;
14748;SDS011;7466;53.574;9.976;2022-09-09T07:33:32;8.63;;;7.20;;
14748;SDS011;7466;53.574;9.976;2022-09-09T07:36:05;8.90;;;6.80;;
14748;SDS011;7466;53.574;9.976;2022-09-09T07:38:38;9.03;;;7.37;;
14748;SDS011;7466;53.574;9.976;2022-09-09T07:41:06;8.27;;;7.20;;
14748;SDS011;7466;53.574;9.976;2022-09-09T07:43:36;9.30;;;7.00;;
14748;SDS011;7466;53.574;9.976;2022-09-09T07:46:04;8.57;;;6.87;;
14748;SDS011;7466;53.574;9.976;2022-09-09T07:48:31;6.73;;;6.13;;
14748;SDS011;7466;53.574;9.976;2022-09-09T07:51:06;8.97;;;6.83;;
14748;SDS011;7466;53.574;9.976;2022-09-09T07:53:34;7.10;;;6.43;;
14748;SDS011;7466;53.574;9.976;2022-09-09T07:56:05;6.70;;;5.90;;
14748;SDS011;7466;53.574;9.976;2022-09-09T07:58:34;7.77;;;6.13;;
14748;SDS011;7466;53.574;9.976;2022-09-09T08:01:05;8.80;;;5.93;;
14748;SDS011;7466;53.574;9.976;2022-09-09T08:03:33;10.80;;;6.50;;
14748;SDS011;7466;53.574;9.976;2022-09-09T08:06:00;10.47;;;6.87;;
14748;SDS011;7466;53.574;9.976;2022-09-09T08:08:27;9.83;;;6.70;;
14748;SDS011;7466;53.574;9.976;2022-09-09T08:11:01;7.30;;;5.53;;
14748;SDS011;7466;53.574;9.976;2022-09-09T08:13:31;7.83;;;6.03;;
14748;SDS011;7466;53.574;9.976;2022-09-09T08:16:03;7.77;;;6.57;;
14748;SDS011;7466;53.574;9.976;2022-09-09T08:18:31;7.90;;;6.10;;
14748;SDS011;7466;53.574;9.976;2022-09-09T08:21:04;8.10;;;6.17;;
14748;SDS011;7466;53.574;9.976;2022-09-09T08:23:31;8.37;;;6.30;;
14748;SDS011;7466;53.574;9.976;2022-09-09T08:26:02;11.87;;;5.67;;
14748;SDS011;7466;53.574;9.976;2022-09-09T08:28:31;6.50;;;5.73;;
14748;SDS011;7466;53.574;9.976;2022-09-09T08:31:04;6.10;;;5.23;;
14748;SDS011;7466;53.574;9.976;2022-09-09T08:33:32;7.43;;;5.10;;
14748;SDS011;7466;53.574;9.976;2022-09-09T08:35:59;7.00;;;4.77;;
14748;SDS011;7466;53.574;9.976;2022-09-09T08:38:26;5.10;;;4.60;;
14748;SDS011;7466;53.574;9.976;2022-09-09T08:40:53;6.03;;;4.40;;
14748;SDS011;7466;53.574;9.976;2022-09-09T08:43:27;4.40;;;4.00;;
14748;SDS011;7466;53.574;9.976;2022-09-09T08:46:00;9.00;;;5.00;;
14748;SDS011;7466;53.574;9.976;2022-09-09T08:48:39;9.47;;;5.07;;
14748;SDS011;7466;53.574;9.976;2022-09-09T08:51:17;4.93;;;4.43;;
14748;SDS011;7466;53.574;9.976;2022-09-09T08:53:46;9.33;;;4.20;;
14748;SDS011;7466;53.574;9.976;2022-09-09T08:56:16;6.70;;;3.67;;
14748;SDS011;7466;53.574;9.976;2022-09-09T08:58:47;4.00;;;3.60;;
14748;SDS011;7466;53.574;9.976;2022-09-09T09:04:11;3.87;;;3.30;;
14748;SDS011;7466;53.574;9.976;2022-09-09T09:06:49;3.00;;;2.70;;
14748;SDS011;7466;53.574;9.976;2022-09-09T09:09:27;3.40;;;3.10;;
14748;SDS011;7466;53.574;9.976;2022-09-09T09:12:10;6.03;;;2.77;;
14748;SDS011;7466;53.574;9.976;2022-09-09T09:14:42;3.63;;;2.97;;
14748;SDS011;7466;53.574;9.976;2022-09-09T09:17:12;3.83;;;2.97;;
14748;SDS011;7466;53.574;9.976;2022-09-09T09:19:41;5.83;;;2.90;;
14748;SDS011;7466;53.574;9.976;2022-09-09T09:22:10;2.80;;;2.33;;
14748;SDS011;7466;53.574;9.976;2022-09-09T09:24:45;3.33;;;2.33;;
14748;SDS011;7466;53.574;9.976;2022-09-09T09:27:20;3.83;;;2.50;;
14748;SDS011;7466;53.574;9.976;2022-09-09T09:29:54;5.27;;;2.33;;
14748;SDS011;7466;53.574;9.976;2022-09-09T09:32:24;2.37;;;2.17;;
14748;SDS011;7466;53.574;9.976;2022-09-09T09:34:56;3.60;;;2.37;;
14748;SDS011;7466;53.574;9.976;2022-09-09T09:37:26;4.27;;;2.27;;
14748;SDS011;7466;53.574;9.976;2022-09-09T09:39:56;2.70;;;2.27;;
14748;SDS011;7466;53.574;9.976;2022-09-09T09:42:34;3.30;;;2.20;;
14748;SDS011;7466;53.574;9.976;2022-09-09T09:45:07;4.70;;;2.30;;
14748;SDS011;7466;53.574;9.976;2022-09-09T09:47:36;3.67;;;2.30;;
14748;SDS011;7466;53.574;9.976;2022-09-09T09:50:15;2.80;;;2.50;;
14748;SDS011;7466;53.574;9.976;2022-09-09T09:52:51;3.20;;;2.10;;
14748;SDS011;7466;53.574;9.976;2022-09-09T09:55:20;6.43;;;2.10;;
14748;SDS011;7466;53.574;9.976;2022-09-09T09:57:49;4.50;;;2.03;;
14748;SDS011;7466;53.574;9.976;2022-09-09T10:00:17;9.57;;;2.80;;
14748;SDS011;7466;53.574;9.976;2022-09-09T10:02:49;2.83;;;2.17;;
14748;SDS011;7466;53.574;9.976;2022-09-09T10:05:19;3.40;;;1.87;;
14748;SDS011;7466;53.574;9.976;2022-09-09T10:07:57;2.67;;;1.97;;
14748;SDS011;7466;53.574;9.976;2022-09-09T10:10:30;3.28;;;2.03;;
14748;SDS011;7466;53.574;9.976;2022-09-09T10:13:08;4.25;;;2.30;;
14748;SDS011;7466;53.574;9.976;2022-09-09T10:15:44;2.03;;;1.90;;
14748;SDS011;7466;53.574;9.976;2022-09-09T10:18:25;4.60;;;2.08;;
14748;SDS011;7466;53.574;9.976;2022-09-09T10:21:07;3.67;;;2.10;;
14748;SDS011;7466;53.574;9.976;2022-09-09T10:23:46;2.55;;;2.00;;
14748;SDS011;7466;53.574;9.976;2022-09-09T10:26:31;3.20;;;1.60;;
14748;SDS011;7466;53.574;9.976;2022-09-09T10:29:14;2.55;;;2.20;;
14748;SDS011;7466;53.574;9.976;2022-09-09T10:31:51;3.72;;;2.10;;
14748;SDS011;7466;53.574;9.976;2022-09-09T10:34:33;2.83;;;2.00;;
14748;SDS011;7466;53.574;9.976;2022-09-09T10:37:15;3.83;;;1.90;;
14748;SDS011;7466;53.574;9.976;2022-09-09T10:39:53;6.00;;;2.00;;
14748;SDS011;7466;53.574;9.976;2022-09-09T10:42:26;1.95;;;1.75;;
14748;SDS011;7466;53.574;9.976;2022-09-09T10:45:00;3.75;;;1.67;;
14748;SDS011;7466;53.574;9.976;2022-09-09T10:47:46;4.88;;;2.10;;
14748;SDS011;7466;53.574;9.976;2022-09-09T10:50:42;4.38;;;1.75;;
14748;SDS011;7466;53.574;9.976;2022-09-09T10:53:18;2.17;;;1.27;;
14748;SDS011;7466;53.574;9.976;2022-09-09T10:56:01;3.75;;;1.60;;
14748;SDS011;7466;53.574;9.976;2022-09-09T10:58:35;5.03;;;2.08;;
14748;SDS011;7466;53.574;9.976;2022-09-09T11:01:09;2.00;;;1.50;;
14748;SDS011;7466;53.574;9.976;2022-09-09T11:03:41;2.90;;;1.70;;
14748;SDS011;7466;53.574;9.976;2022-09-09T11:06:14;3.97;;;1.40;;
14748;SDS011;7466;53.574;9.976;2022-09-09T11:08:45;3.22;;;1.73;;
14748;SDS011;7466;53.574;9.976;2022-09-09T11:11:15;3.15;;;1.50;;
14748;SDS011;7466;53.574;9.976;2022-09-09T11:13:47;3.67;;;1.55;;
14748;SDS011;7466;53.574;9.976;2022-09-09T11:16:21;2.30;;;1.67;;
14748;SDS011;7466;53.574;9.976;2022-09-09T11:18:53;4.60;;;1.67;;
14748;SDS011;7466;53.574;9.976;2022-09-09T11:21:27;2.00;;;1.58;;
14748;SDS011;7466;53.574;9.976;2022-09-09T11:23:57;4.47;;;1.55;;
14748;SDS011;7466;53.574;9.976;2022-09-09T11:26:31;2.63;;;1.30;;
14748;SDS011;7466;53.574;9.976;2022-09-09T11:29:08;2.90;;;1.60;;
14748;SDS011;7466;53.574;9.976;2022-09-09T11:31:54;3.28;;;1.40;;
14748;SDS011;7466;53.574;9.976;2022-09-09T11:34:35;3.45;;;1.40;;
14748;SDS011;7466;53.574;9.976;2022-09-09T11:37:23;4.05;;;1.60;;
14748;SDS011;7466;53.574;9.976;2022-09-09T11:40:15;2.10;;;1.50;;
14748;SDS011;7466;53.574;9.976;2022-09-09T11:42:46;3.97;;;1.45;;
14748;SDS011;7466;53.574;9.976;2022-09-09T11:45:21;6.13;;;1.63;;
14748;SDS011;7466;53.574;9.976;2022-09-09T11:47:51;3.90;;;1.40;;
14748;SDS011;7466;53.574;9.976;2022-09-09T11:50:27;1.60;;;1.50;;
14748;SDS011;7466;53.574;9.976;2022-09-09T11:55:47;2.60;;;1.88;;
14748;SDS011;7466;53.574;9.976;2022-09-09T11:58:15;10.00;;;2.63;;
14748;SDS011;7466;53.574;9.976;2022-09-09T12:00:43;7.95;;;2.28;;
14748;SDS011;7466;53.574;9.976;2022-09-09T12:06:11;6.07;;;3.10;;
14748;SDS011;7466;53.574;9.976;2022-09-09T12:08:43;7.43;;;2.57;;
14748;SDS011;7466;53.574;9.976;2022-09-09T12:11:12;5.55;;;2.33;;
14748;SDS011;7466;53.574;9.976;2022-09-09T12:13:54;4.17;;;2.17;;
14748;SDS011;7466;53.574;9.976;2022-09-09T12:16:29;7.43;;;2.37;;
14748;SDS011;7466;53.574;9.976;2022-09-09T12:19:12;6.73;;;2.60;;
14748;SDS011;7466;53.574;9.976;2022-09-09T12:21:44;4.97;;;2.43;;
14748;SDS011;7466;53.574;9.976;2022-09-09T12:24:19;4.90;;;2.33;;
14748;SDS011;7466;53.574;9.976;2022-09-09T12:26:52;3.07;;;2.23;;
14748;SDS011;7466;53.574;9.976;2022-09-09T12:29:27;5.85;;;2.55;;
14748;SDS011;7466;53.574;9.976;2022-09-09T12:32:02;4.38;;;2.22;;
14748;SDS011;7466;53.574;9.976;2022-09-09T12:34:35;9.77;;;2.10;;
14748;SDS011;7466;53.574;9.976;2022-09-09T12:37:15;8.63;;;2.25;;
14748;SDS011;7466;53.574;9.976;2022-09-09T12:39:51;3.90;;;1.88;;
14748;SDS011;7466;53.574;9.976;2022-09-09T12:42:21;4.55;;;1.90;;
14748;SDS011;7466;53.574;9.976;2022-09-09T12:44:52;4.90;;;2.00;;
14748;SDS011;7466;53.574;9.976;2022-09-09T12:47:20;3.20;;;2.20;;
14748;SDS011;7466;53.574;9.976;2022-09-09T12:49:50;4.13;;;2.10;;
14748;SDS011;7466;53.574;9.976;2022-09-09T12:52:19;5.40;;;2.00;;
14748;SDS011;7466;53.574;9.976;2022-09-09T12:54:51;4.22;;;2.38;;
14748;SDS011;7466;53.574;9.976;2022-09-09T12:57:19;4.20;;;2.27;;
14748;SDS011;7466;53.574;9.976;2022-09-09T12:59:48;4.00;;;2.30;;
14748;SDS011;7466;53.574;9.976;2022-09-09T13:02:19;4.10;;;2.33;;
14748;SDS011;7466;53.574;9.976;2022-09-09T13:04:47;3.13;;;2.30;;
14748;SDS011;7466;53.574;9.976;2022-09-09T13:07:16;4.10;;;2.63;;
14748;SDS011;7466;53.574;9.976;2022-09-09T13:09:45;3.33;;;2.40;;
14748;SDS011;7466;53.574;9.976;2022-09-09T13:12:16;4.57;;;2.63;;
14748;SDS011;7466;53.574;9.976;2022-09-09T13:14:45;4.90;;;2.70;;
14748;SDS011;7466;53.574;9.976;2022-09-09T13:17:18;9.93;;;3.13;;
14748;SDS011;7466;53.574;9.976;2022-09-09T13:19:47;5.30;;;2.67;;
14748;SDS011;7466;53.574;9.976;2022-09-09T13:22:21;4.10;;;2.97;;
14748;SDS011;7466;53.574;9.976;2022-09-09T13:25:00;4.63;;;2.90;;
14748;SDS011;7466;53.574;9.976;2022-09-09T13:27:31;6.33;;;3.07;;
14748;SDS011;7466;53.574;9.976;2022-09-09T13:29:59;7.37;;;3.20;;
14748;SDS011;7466;53.574;9.976;2022-09-09T13:32:27;7.13;;;3.67;;
14748;SDS011;7466;53.574;9.976;2022-09-09T13:34:56;7.00;;;3.97;;
14748;SDS011;7466;53.574;9.976;2022-09-09T13:37:26;6.90;;;4.40;;
14748;SDS011;7466;53.574;9.976;2022-09-09T13:39:57;6.80;;;3.50;;
14748;SDS011;7466;53.574;9.976;2022-09-09T13:42:24;4.97;;;3.40;;
14748;SDS011;7466;53.574;9.976;2022-09-09T13:44:55;6.07;;;3.80;;
14748;SDS011;7466;53.574;9.976;2022-09-09T13:47:26;6.37;;;4.30;;
14748;SDS011;7466;53.574;9.976;2022-09-09T13:49:56;10.10;;;4.30;;
14748;SDS011;7466;53.574;9.976;2022-09-09T13:52:23;8.07;;;4.90;;
14748;SDS011;7466;53.574;9.976;2022-09-09T13:54:53;8.87;;;4.83;;
14748;SDS011;7466;53.574;9.976;2022-09-09T13:57:21;8.40;;;4.47;;
14748;SDS011;7466;53.574;9.976;2022-09-09T13:59:50;8.93;;;4.77;;
14748;SDS011;7466;53.574;9.976;2022-09-09T14:02:21;7.47;;;4.73;;
14748;SDS011;7466;53.574;9.976;2022-09-09T14:04:48;8.73;;;4.90;;
14748;SDS011;7466;53.574;9.976;2022-09-09T14:07:16;6.87;;;4.83;;
14748;SDS011;7466;53.574;9.976;2022-09-09T14:09:45;6.10;;;3.97;;
14748;SDS011;7466;53.574;9.976;2022-09-09T14:12:14;7.70;;;4.47;;
14748;SDS011;7466;53.574;9.976;2022-09-09T14:14:43;5.37;;;4.67;;
14748;SDS011;7466;53.574;9.976;2022-09-09T14:17:10;6.80;;;5.53;;
14748;SDS011;7466;53.574;9.976;2022-09-09T14:19:38;8.63;;;5.33;;
14748;SDS011;7466;53.574;9.976;2022-09-09T14:22:05;6.47;;;5.40;;
14748;SDS011;7466;53.574;9.976;2022-09-09T14:24:32;10.77;;;5.23;;
14748;SDS011;7466;53.574;9.976;2022-09-09T14:26:59;7.33;;;5.60;;
14748;SDS011;7466;53.574;9.976;2022-09-09T14:29:25;6.30;;;5.70;;
14748;SDS011;7466;53.574;9.976;2022-09-09T14:31:52;12.73;;;5.33;;
14748;SDS011;7466;53.574;9.976;2022-09-09T14:34:19;10.10;;;5.67;;
14748;SDS011;7466;53.574;9.976;2022-09-09T14:36:48;6.17;;;4.77;;
14748;SDS011;7466;53.574;9.976;2022-09-09T14:39:15;6.90;;;4.97;;
14748;SDS011;7466;53.574;9.976;2022-09-09T14:41:42;5.40;;;3.50;;
14748;SDS011;7466;53.574;9.976;2022-09-09T14:44:08;5.23;;;3.43;;
14748;SDS011;7466;53.574;9.976;2022-09-09T14:46:35;5.07;;;3.57;;
14748;SDS011;7466;53.574;9.976;2022-09-09T14:49:02;6.33;;;3.70;;
14748;SDS011;7466;53.574;9.976;2022-09-09T14:51:29;5.07;;;3.33;;
14748;SDS011;7466;53.574;9.976;2022-09-09T14:53:58;5.07;;;3.57;;
14748;SDS011;7466;53.574;9.976;2022-09-09T14:56:27;6.63;;;3.77;;
14748;SDS011;7466;53.574;9.976;2022-09-09T14:58:57;9.17;;;3.97;;
14748;SDS011;7466;53.574;9.976;2022-09-09T15:01:26;8.63;;;3.83;;
14748;SDS011;7466;53.574;9.976;2022-09-09T15:03:54;8.13;;;3.80;;
14748;SDS011;7466;53.574;9.976;2022-09-09T15:06:22;8.57;;;3.53;;
14748;SDS011;7466;53.574;9.976;2022-09-09T15:08:51;7.43;;;3.20;;
14748;SDS011;7466;53.574;9.976;2022-09-09T15:11:20;6.83;;;3.57;;
14748;SDS011;7466;53.574;9.976;2022-09-09T15:13:50;6.30;;;3.00;;
14748;SDS011;7466;53.574;9.976;2022-09-09T15:16:18;5.27;;;3.00;;
14748;SDS011;7466;53.574;9.976;2022-09-09T15:18:46;6.47;;;3.30;;